createdAt,value
2023-04-11T00:01:34.383Z,70.99
2023-04-11T00:03:38.961Z,70.99
2023-04-11T00:05:41.904Z,71.16
2023-04-11T00:07:44.639Z,72.34
2023-04-11T00:09:47.357Z,72.27
2023-04-11T00:11:50.082Z,71.84
2023-04-11T00:13:57.521Z,72.21
2023-04-11T00:16:02.685Z,72.04
2023-04-11T00:18:06.482Z,71.79
2023-04-11T00:20:11.493Z,72.00
2023-04-11T00:22:15.640Z,71.21
2023-04-11T00:24:18.488Z,72.09
2023-04-11T00:26:22.331Z,72.54
2023-04-11T00:28:25.435Z,72.87
2023-04-11T00:30:29.570Z,72.93
2023-04-11T00:32:32.327Z,73.14
2023-04-11T00:34:35.158Z,74.89
2023-04-11T00:36:37.937Z,76.56
2023-04-11T00:38:42.234Z,78.70
2023-04-11T00:40:45.480Z,82.26
2023-04-11T00:42:48.932Z,85.25
2023-04-11T00:44:53.147Z,84.72
2023-04-11T00:46:57.567Z,85.96
2023-04-11T00:49:00.883Z,85.71
2023-04-11T00:51:03.894Z,84.34
2023-04-11T00:53:06.806Z,82.92
2023-04-11T00:55:11.607Z,83.13
2023-04-11T00:57:14.507Z,82.01
2023-04-11T00:59:18.439Z,82.82
2023-04-11T01:01:25.089Z,82.40
2023-04-11T01:03:30.205Z,82.72
2023-04-11T01:05:35.743Z,82.81
2023-04-11T01:07:41.165Z,83.65
2023-04-11T01:09:45.204Z,83.53
2023-04-11T01:11:49.259Z,84.49
2023-04-11T01:13:52.744Z,85.84
2023-04-11T01:15:55.521Z,86.25
2023-04-11T01:18:02.261Z,86.17
2023-04-11T01:20:09.286Z,86.01
2023-04-11T01:22:14.789Z,86.21
2023-04-11T01:24:19.498Z,92.78
2023-04-11T01:26:23.037Z,98.75
2023-04-11T01:28:25.800Z,100.00
2023-04-11T01:30:28.688Z,100.00
2023-04-11T01:32:31.491Z,100.00
2023-04-11T01:34:36.313Z,100.00
2023-04-11T01:36:39.502Z,100.00
2023-04-11T01:38:42.454Z,100.00
2023-04-11T01:40:47.723Z,100.00
2023-04-11T01:42:51.794Z,100.00
2023-04-11T01:44:57.551Z,100.00
2023-04-11T01:47:00.858Z,100.00
2023-04-11T01:49:04.399Z,100.00
2023-04-11T01:51:08.425Z,100.00
2023-04-11T01:53:11.223Z,100.00
2023-04-11T01:55:14.014Z,100.00
2023-04-11T01:57:19.205Z,100.00
2023-04-11T01:59:22.848Z,100.00
2023-04-11T02:01:26.073Z,100.00
2023-04-11T02:03:29.109Z,100.00
2023-04-11T02:05:32.017Z,100.00
2023-04-11T02:07:34.823Z,100.00
2023-04-11T02:09:37.885Z,100.00
2023-04-11T02:11:40.952Z,100.00
2023-04-11T02:13:45.944Z,100.00
2023-04-11T02:15:48.892Z,100.00
2023-04-11T02:17:54.263Z,100.00
2023-04-11T02:19:57.482Z,100.00
2023-04-11T02:22:00.373Z,100.00
2023-04-11T02:24:03.134Z,100.00
2023-04-11T02:26:06.159Z,100.00
2023-04-11T02:28:08.910Z,100.00
2023-04-11T02:30:13.437Z,100.00
2023-04-11T02:32:16.433Z,100.00
2023-04-11T02:34:22.090Z,100.00
2023-04-11T02:36:24.880Z,100.00
2023-04-11T02:38:27.726Z,100.00
2023-04-11T02:40:30.594Z,100.00
2023-04-11T02:42:33.377Z,100.00
2023-04-11T02:44:36.225Z,100.00
2023-04-11T02:46:41.068Z,100.00
2023-04-11T02:48:44.739Z,100.00
2023-04-11T02:50:49.032Z,100.00
2023-04-11T02:52:52.672Z,100.00
2023-04-11T02:54:59.085Z,100.00
2023-04-11T02:57:03.669Z,100.00
2023-04-11T02:59:07.150Z,100.00
2023-04-11T03:01:11.806Z,100.00
2023-04-11T03:03:16.133Z,100.00
2023-04-11T03:05:21.454Z,100.00
2023-04-11T03:07:27.133Z,100.00
2023-04-11T03:09:30.151Z,100.00
2023-04-11T03:11:32.934Z,100.00
2023-04-11T03:13:37.387Z,100.00
2023-04-11T03:15:40.236Z,100.00
2023-04-11T03:17:45.172Z,100.00
2023-04-11T03:19:51.861Z,100.00
2023-04-11T03:21:54.827Z,100.00
2023-04-11T03:23:57.529Z,100.00
2023-04-11T03:26:00.574Z,100.00
2023-04-11T03:28:04.272Z,100.00
2023-04-11T03:30:09.014Z,100.00
2023-04-11T03:32:18.136Z,100.00
2023-04-11T03:34:21.899Z,100.00
2023-04-11T03:36:27.686Z,100.00
2023-04-11T03:38:30.727Z,100.00
2023-04-11T03:40:33.544Z,100.00
2023-04-11T03:42:44.901Z,100.00
2023-04-11T03:44:51.927Z,100.00
2023-04-11T03:46:55.147Z,100.00
2023-04-11T03:48:58.989Z,100.00
2023-04-11T03:51:02.189Z,100.00
2023-04-11T03:53:14.770Z,100.00
2023-04-11T03:55:20.430Z,100.00
2023-04-11T03:57:26.756Z,100.00
2023-04-11T03:59:30.779Z,100.00
2023-04-11T04:01:38.530Z,100.00
2023-04-11T04:03:42.465Z,100.00
2023-04-11T04:05:49.230Z,100.00
2023-04-11T04:07:54.589Z,100.00
2023-04-11T04:10:22.720Z,100.00
2023-04-11T04:12:28.046Z,100.00
2023-04-11T04:14:43.818Z,100.00
2023-04-11T04:16:46.989Z,100.00
2023-04-11T04:18:51.460Z,100.00
2023-04-11T04:20:56.380Z,100.00
2023-04-11T04:23:01.138Z,100.00
2023-04-11T04:25:25.657Z,100.00
2023-04-11T04:27:34.038Z,100.00
2023-04-11T04:29:38.984Z,100.00
2023-04-11T04:31:52.889Z,100.00
2023-04-11T04:34:03.690Z,100.00
2023-04-11T04:36:10.105Z,100.00
2023-04-11T04:38:17.920Z,100.00
2023-04-11T04:40:27.405Z,100.00
2023-04-11T04:42:36.444Z,100.00
2023-04-11T04:44:41.152Z,100.00
2023-04-11T04:46:54.248Z,100.00
2023-04-11T04:49:01.592Z,100.00
2023-04-11T04:51:05.840Z,100.00
2023-04-11T04:53:10.449Z,100.00
2023-04-11T04:55:19.814Z,100.00
2023-04-11T04:57:25.836Z,100.00
2023-04-11T04:59:28.572Z,100.00
2023-04-11T05:01:39.931Z,100.00
2023-04-11T05:03:46.792Z,100.00
2023-04-11T05:05:59.516Z,100.00
2023-04-11T05:08:02.678Z,100.00
2023-04-11T05:10:08.225Z,100.00
2023-04-11T05:12:13.600Z,100.00
2023-04-11T05:14:18.238Z,100.00
2023-04-11T05:16:21.877Z,100.00
2023-04-11T05:18:24.655Z,100.00
2023-04-11T05:20:29.713Z,100.00
2023-04-11T05:22:33.649Z,100.00
2023-04-11T05:24:37.108Z,100.00
2023-04-11T05:26:43.067Z,100.00
2023-04-11T05:28:46.956Z,100.00
2023-04-11T05:30:55.459Z,100.00
2023-04-11T05:32:58.356Z,100.00
2023-04-11T05:35:01.184Z,100.00
2023-04-11T05:37:15.019Z,100.00
2023-04-11T05:39:17.697Z,100.00
2023-04-11T05:41:20.335Z,100.00
2023-04-11T05:43:22.949Z,100.00
2023-04-11T05:45:25.694Z,100.00
2023-04-11T05:47:29.759Z,100.00
2023-04-11T05:49:32.568Z,100.00
2023-04-11T05:51:35.393Z,100.00
2023-04-11T05:53:38.034Z,100.00
2023-04-11T05:55:40.813Z,100.00
2023-04-11T05:57:43.495Z,100.00
2023-04-11T05:59:49.689Z,100.00
2023-04-11T06:01:52.469Z,100.00
2023-04-11T06:03:57.475Z,100.00
2023-04-11T06:06:01.298Z,100.00
2023-04-11T06:08:05.505Z,100.00
2023-04-11T06:10:09.922Z,100.00
2023-04-11T06:12:12.585Z,100.00
2023-04-11T06:14:15.249Z,100.00
2023-04-11T06:16:18.043Z,100.00
2023-04-11T06:18:20.785Z,100.00
2023-04-11T06:20:25.696Z,100.00
2023-04-11T06:22:28.472Z,100.00
2023-04-11T06:24:38.901Z,100.00
2023-04-11T06:26:41.560Z,100.00
2023-04-11T06:28:44.212Z,100.00
2023-04-11T06:30:46.921Z,100.00
2023-04-11T06:32:49.759Z,100.00
2023-04-11T06:34:52.655Z,100.00
2023-04-11T06:36:56.947Z,100.00
2023-04-11T06:38:59.653Z,100.00
2023-04-11T06:41:02.415Z,100.00
2023-04-11T06:43:05.149Z,100.00
2023-04-11T06:45:08.846Z,100.00
2023-04-11T06:47:11.651Z,100.00
2023-04-11T06:49:14.387Z,100.00
2023-04-11T06:51:17.108Z,100.00
2023-04-11T06:53:21.515Z,100.00
2023-04-11T06:55:24.303Z,100.00
2023-04-11T06:57:27.040Z,100.00
2023-04-11T06:59:29.919Z,100.00
2023-04-11T07:01:35.605Z,100.00
2023-04-11T07:03:38.570Z,100.00
2023-04-11T07:05:41.500Z,100.00
2023-04-11T07:07:44.310Z,100.00
2023-04-11T07:09:48.387Z,100.00
2023-04-11T07:11:51.153Z,100.00
2023-04-11T07:13:54.290Z,100.00
2023-04-11T07:15:57.346Z,100.00
2023-04-11T07:18:00.212Z,100.00
2023-04-11T07:20:04.703Z,100.00
2023-04-11T07:22:07.718Z,100.00
2023-04-11T07:24:13.170Z,100.00
2023-04-11T07:26:17.887Z,100.00
2023-04-11T07:28:21.414Z,100.00
2023-04-11T07:30:24.336Z,100.00
2023-04-11T07:32:27.099Z,100.00
2023-04-11T07:34:29.852Z,100.00
2023-04-11T07:36:32.606Z,100.00
2023-04-11T07:38:37.437Z,100.00
2023-04-11T07:40:40.267Z,100.00
2023-04-11T07:42:46.139Z,100.00
2023-04-11T07:44:48.898Z,100.00
2023-04-11T07:46:51.713Z,100.00
2023-04-11T07:48:54.409Z,100.00
2023-04-11T07:50:57.124Z,100.00
2023-04-11T07:52:59.858Z,100.00
2023-04-11T07:55:02.944Z,100.00
2023-04-11T07:57:05.710Z,100.00
2023-04-11T07:59:09.810Z,100.00
2023-04-11T08:01:21.109Z,100.00
2023-04-11T08:03:24.241Z,100.00
2023-04-11T08:05:27.825Z,100.00
2023-04-11T08:07:30.579Z,100.00
2023-04-11T08:09:33.483Z,100.00
2023-04-11T08:11:36.457Z,100.00
2023-04-11T08:13:39.553Z,100.00
2023-04-11T08:15:43.697Z,100.00
2023-04-11T08:17:46.642Z,100.00
2023-04-11T08:19:49.390Z,100.00
2023-04-11T08:21:52.750Z,100.00
2023-04-11T08:23:55.891Z,100.00
2023-04-11T08:25:58.916Z,100.00
2023-04-11T08:28:02.462Z,100.00
2023-04-11T08:30:06.759Z,100.00
2023-04-11T08:32:10.879Z,100.00
2023-04-11T08:34:14.047Z,100.00
2023-04-11T08:36:16.931Z,100.00
2023-04-11T08:38:19.741Z,100.00
2023-04-11T08:40:22.486Z,100.00
2023-04-11T08:42:27.276Z,100.00
2023-04-11T08:44:30.032Z,100.00
2023-04-11T08:46:34.410Z,100.00
2023-04-11T08:48:39.647Z,100.00
2023-04-11T08:50:42.805Z,100.00
2023-04-11T08:52:47.718Z,100.00
2023-04-11T08:54:54.719Z,100.00
2023-04-11T08:56:57.424Z,100.00
2023-04-11T08:59:00.160Z,100.00
2023-04-11T09:01:26.043Z,100.00
2023-04-11T09:03:28.791Z,100.00
2023-04-11T09:05:35.018Z,100.00
2023-04-11T09:07:49.912Z,100.00
2023-04-11T09:09:52.679Z,100.00
2023-04-11T09:11:56.341Z,100.00
2023-04-11T09:14:09.445Z,100.00
2023-04-11T09:16:14.115Z,100.00
2023-04-11T09:18:33.674Z,98.34
2023-04-11T09:20:37.807Z,98.91
2023-04-11T09:22:43.030Z,97.66
2023-04-11T09:24:48.072Z,96.23
2023-04-11T09:26:51.974Z,93.92
2023-04-11T09:28:54.878Z,97.86
2023-04-11T09:30:57.869Z,96.61
2023-04-11T09:33:18.186Z,96.69
2023-04-11T09:35:24.824Z,93.64
2023-04-11T09:37:42.278Z,95.69
2023-04-11T09:39:45.477Z,88.13
2023-04-11T09:41:48.633Z,94.68
2023-04-11T09:43:52.203Z,96.94
2023-04-11T09:46:10.807Z,92.71
2023-04-11T09:48:15.959Z,95.07
2023-04-11T09:50:19.426Z,99.90
2023-04-11T09:52:22.163Z,100.00
2023-04-11T09:54:28.134Z,100.00
2023-04-11T09:56:33.932Z,100.00
2023-04-11T09:58:38.271Z,100.00
2023-04-11T10:00:42.351Z,100.00
2023-04-11T10:02:46.561Z,100.00
2023-04-11T10:04:50.121Z,100.00
2023-04-11T10:07:04.360Z,100.00
2023-04-11T10:09:09.596Z,100.00
2023-04-11T10:11:18.443Z,98.20
2023-04-11T10:13:41.275Z,100.00
2023-04-11T10:16:08.470Z,96.92
2023-04-11T10:18:12.734Z,94.54
2023-04-11T10:20:46.238Z,90.04
2023-04-11T10:23:01.910Z,90.70
2023-04-11T10:25:17.414Z,97.10
2023-04-11T10:27:47.076Z,90.20
2023-04-11T10:29:52.514Z,93.59
2023-04-11T10:32:09.746Z,94.28
2023-04-11T10:34:13.807Z,84.99
2023-04-11T10:36:16.606Z,87.91
2023-04-11T10:38:48.217Z,90.17
2023-04-11T10:41:18.982Z,90.32
2023-04-11T10:43:23.186Z,82.02
2023-04-11T10:45:27.095Z,84.97
2023-04-11T10:47:29.902Z,79.18
2023-04-11T10:49:38.027Z,77.13
2023-04-11T10:51:40.875Z,75.52
2023-04-11T10:53:44.113Z,77.50
2023-04-11T10:55:48.789Z,78.82
2023-04-11T10:58:08.456Z,69.36
2023-04-11T11:00:16.427Z,73.38
2023-04-11T11:02:21.679Z,69.79
2023-04-11T11:04:32.079Z,73.13
2023-04-11T11:06:46.083Z,69.41
2023-04-11T11:08:49.920Z,72.66
2023-04-11T11:10:52.633Z,67.20
2023-04-11T11:12:56.019Z,66.31
2023-04-11T11:14:58.817Z,66.49
2023-04-11T11:17:03.578Z,68.56
2023-04-11T11:19:06.584Z,66.12
2023-04-11T11:21:14.160Z,65.11
2023-04-11T11:23:19.885Z,68.28
2023-04-11T11:25:22.666Z,68.14
2023-04-11T11:27:26.080Z,69.89
2023-04-11T11:29:33.735Z,71.27
2023-04-11T11:31:39.232Z,72.58
2023-04-11T11:33:43.490Z,68.92
2023-04-11T11:35:52.806Z,64.78
2023-04-11T11:37:56.371Z,65.80
2023-04-11T11:39:59.244Z,67.21
2023-04-11T11:42:03.327Z,71.62
2023-04-11T11:44:06.965Z,71.79
2023-04-11T11:46:12.051Z,66.57
2023-04-11T11:48:21.697Z,60.91
2023-04-11T11:50:31.265Z,65.55
2023-04-11T11:52:35.118Z,64.31
2023-04-11T11:54:44.969Z,62.51
2023-04-11T11:56:51.769Z,64.31
2023-04-11T11:58:54.506Z,61.47
2023-04-11T12:00:57.273Z,64.06
2023-04-11T12:03:00.821Z,62.83
2023-04-11T12:05:06.287Z,60.36
2023-04-11T12:07:11.024Z,60.15
2023-04-11T12:09:13.785Z,60.11
2023-04-11T12:11:16.797Z,54.94
2023-04-11T12:13:22.150Z,55.61
2023-04-11T12:15:25.238Z,59.95
2023-04-11T12:17:34.799Z,62.67
2023-04-11T12:19:42.799Z,63.97
2023-04-11T12:21:45.538Z,64.73
2023-04-11T12:23:49.585Z,57.53
2023-04-11T12:25:52.365Z,62.19
2023-04-11T12:27:55.335Z,58.21
2023-04-11T12:29:58.037Z,57.15
2023-04-11T12:32:00.729Z,58.99
2023-04-11T12:34:03.801Z,56.27
2023-04-11T12:36:07.733Z,54.94
2023-04-11T12:38:11.946Z,56.70
2023-04-11T12:40:19.304Z,54.47
2023-04-11T12:42:26.728Z,54.39
2023-04-11T12:44:29.969Z,56.92
2023-04-11T12:46:33.608Z,55.08
2023-04-11T12:48:36.529Z,49.69
2023-04-11T12:50:39.262Z,47.67
2023-04-11T12:52:42.254Z,50.89
2023-04-11T12:54:44.999Z,48.97
2023-04-11T12:56:49.058Z,49.28
2023-04-11T12:58:51.765Z,49.54
2023-04-11T13:00:54.444Z,52.30
2023-04-11T13:02:57.973Z,48.13
2023-04-11T13:05:06.280Z,43.26
2023-04-11T13:07:10.007Z,48.63
2023-04-11T13:09:13.273Z,48.28
2023-04-11T13:11:16.044Z,50.84
2023-04-11T13:13:20.114Z,49.33
2023-04-11T13:15:22.852Z,50.77
2023-04-11T13:17:25.740Z,50.68
2023-04-11T13:19:28.498Z,51.99
2023-04-11T13:21:32.547Z,49.69
2023-04-11T13:23:36.368Z,49.69
2023-04-11T13:25:39.096Z,49.54
2023-04-11T13:27:42.300Z,50.46
2023-04-11T13:29:46.350Z,48.35
2023-04-11T13:31:49.285Z,48.75
2023-04-11T13:33:52.055Z,50.11
2023-04-11T13:35:54.784Z,49.31
2023-04-11T13:37:57.729Z,50.00
2023-04-11T13:40:00.502Z,49.27
2023-04-11T13:42:03.276Z,46.02
2023-04-11T13:44:06.162Z,46.04
2023-04-11T13:46:11.298Z,48.37
2023-04-11T13:48:14.153Z,48.70
2023-04-11T13:50:17.729Z,46.44
2023-04-11T13:52:22.111Z,46.96
2023-04-11T13:54:24.927Z,48.14
2023-04-11T13:56:28.021Z,48.74
2023-04-11T13:58:31.091Z,48.87
2023-04-11T14:00:36.127Z,48.98
2023-04-11T14:02:40.723Z,47.03
2023-04-11T14:04:43.919Z,49.96
2023-04-11T14:06:46.655Z,50.93
2023-04-11T14:08:50.027Z,47.54
2023-04-11T14:10:53.728Z,46.66
2023-04-11T14:12:56.482Z,45.38
2023-04-11T14:14:59.166Z,46.05
2023-04-11T14:17:01.908Z,44.31
2023-04-11T14:19:06.151Z,43.45
2023-04-11T14:21:09.330Z,42.19
2023-04-11T14:23:13.788Z,42.56
2023-04-11T14:25:16.644Z,45.52
2023-04-11T14:27:19.447Z,42.92
2023-04-11T14:29:23.053Z,44.23
2023-04-11T14:31:26.027Z,42.56
2023-04-11T14:33:28.894Z,44.43
2023-04-11T14:35:32.972Z,46.34
2023-04-11T14:37:36.544Z,47.12
2023-04-11T14:39:39.937Z,45.73
2023-04-11T14:41:42.690Z,46.49
2023-04-11T14:43:45.435Z,46.34
2023-04-11T14:45:48.595Z,49.34
2023-04-11T14:47:51.636Z,46.35
2023-04-11T14:49:54.452Z,46.66
2023-04-11T14:51:58.720Z,45.90
2023-04-11T14:54:01.714Z,45.89
2023-04-11T14:56:06.055Z,48.58
2023-04-11T14:58:08.874Z,44.79
2023-04-11T15:00:17.966Z,46.46
2023-04-11T15:02:20.874Z,46.43
2023-04-11T15:04:23.888Z,45.41
2023-04-11T15:06:27.407Z,42.39
2023-04-11T15:08:32.068Z,41.97
2023-04-11T15:10:34.955Z,40.75
2023-04-11T15:12:37.744Z,43.01
2023-04-11T15:14:40.490Z,40.02
2023-04-11T15:16:43.193Z,41.81
2023-04-11T15:18:46.091Z,43.66
2023-04-11T15:20:48.845Z,42.73
2023-04-11T15:22:51.580Z,44.68
2023-04-11T15:24:55.705Z,45.86
2023-04-11T15:26:58.425Z,47.01
2023-04-11T15:29:01.435Z,47.25
2023-04-11T15:31:05.848Z,45.62
2023-04-11T15:33:08.731Z,45.24
2023-04-11T15:35:12.184Z,41.81
2023-04-11T15:37:15.505Z,40.49
2023-04-11T15:39:18.254Z,39.45
2023-04-11T15:41:22.407Z,39.90
2023-04-11T15:43:25.379Z,40.34
2023-04-11T15:45:28.153Z,43.24
2023-04-11T15:47:31.452Z,46.65
2023-04-11T15:49:34.679Z,43.10
2023-04-11T15:51:38.183Z,42.22
2023-04-11T15:53:41.019Z,41.57
2023-04-11T15:55:44.945Z,41.38
2023-04-11T15:57:49.873Z,40.43
2023-04-11T15:59:52.617Z,41.24
2023-04-11T16:01:55.545Z,40.90
2023-04-11T16:03:58.919Z,40.08
2023-04-11T16:06:02.935Z,38.01
2023-04-11T16:08:05.693Z,36.91
2023-04-11T16:10:09.554Z,39.21
2023-04-11T16:12:12.422Z,39.42
2023-04-11T16:14:16.762Z,40.34
2023-04-11T16:16:19.594Z,40.69
2023-04-11T16:18:22.339Z,40.21
2023-04-11T16:20:25.089Z,39.10
2023-04-11T16:22:27.912Z,41.40
2023-04-11T16:24:31.097Z,42.30
2023-04-11T16:26:33.832Z,43.96
2023-04-11T16:28:36.537Z,44.87
2023-04-11T16:30:40.801Z,45.13
2023-04-11T16:32:43.614Z,45.56
2023-04-11T16:34:46.406Z,45.56
2023-04-11T16:36:49.319Z,46.50
2023-04-11T16:38:52.083Z,46.56
2023-04-11T16:40:55.001Z,47.02
2023-04-11T16:42:57.776Z,48.85
2023-04-11T16:45:00.497Z,50.25
2023-04-11T16:47:04.712Z,49.50
2023-04-11T16:49:07.677Z,48.27
2023-04-11T16:51:11.621Z,50.37
2023-04-11T16:53:14.334Z,50.27
2023-04-11T16:55:17.875Z,50.79
2023-04-11T16:57:20.702Z,50.89
2023-04-11T16:59:24.001Z,50.74
2023-04-11T17:01:26.719Z,51.91
2023-04-11T17:03:31.165Z,51.97
2023-04-11T17:05:34.101Z,51.42
2023-04-11T17:07:36.805Z,50.82
2023-04-11T17:09:39.496Z,49.82
2023-04-11T17:11:42.157Z,49.64
2023-04-11T17:13:45.915Z,49.15
2023-04-11T17:15:48.556Z,51.32
2023-04-11T17:17:51.371Z,51.04
2023-04-11T17:19:55.599Z,49.80
2023-04-11T17:21:58.587Z,50.38
2023-04-11T17:24:01.562Z,52.52
2023-04-11T17:26:04.549Z,56.10
2023-04-11T17:28:07.289Z,55.98
2023-04-11T17:30:11.985Z,55.43
2023-04-11T17:32:14.735Z,57.81
2023-04-11T17:34:17.517Z,57.35
2023-04-11T17:36:21.721Z,58.85
2023-04-11T17:38:24.501Z,60.62
2023-04-11T17:40:27.292Z,60.66
2023-04-11T17:42:29.983Z,59.99
2023-04-11T17:44:32.765Z,61.24
2023-04-11T17:46:35.697Z,61.66
2023-04-11T17:48:38.431Z,62.91
2023-04-11T17:50:41.117Z,62.91
2023-04-11T17:52:46.132Z,64.68
2023-04-11T17:54:48.893Z,63.97
2023-04-11T17:56:52.581Z,62.42
2023-04-11T17:58:56.006Z,61.60
2023-04-11T18:00:58.701Z,61.78
2023-04-11T18:03:02.907Z,62.75
2023-04-11T18:05:13.221Z,62.97
2023-04-11T18:07:24.460Z,62.72
2023-04-11T18:09:31.772Z,63.48
2023-04-11T18:11:34.869Z,63.81
2023-04-11T18:13:37.559Z,63.43
2023-04-11T18:15:40.372Z,63.98
2023-04-11T18:17:44.567Z,64.10
2023-04-11T18:19:47.342Z,64.10
2023-04-11T18:21:50.651Z,65.87
2023-04-11T18:23:53.370Z,66.23
2023-04-11T18:25:57.466Z,66.64
2023-04-11T18:28:00.204Z,65.85
2023-04-11T18:30:04.514Z,67.14
2023-04-11T18:32:07.286Z,67.40
2023-04-11T18:34:10.189Z,67.37
2023-04-11T18:36:13.573Z,68.88
2023-04-11T18:38:16.517Z,69.60
2023-04-11T18:40:19.605Z,66.74
2023-04-11T18:42:23.839Z,67.56
2023-04-11T18:44:26.607Z,68.97
2023-04-11T18:46:29.430Z,70.43
2023-04-11T18:48:32.194Z,70.43
2023-04-11T18:50:38.669Z,69.50
2023-04-11T18:52:42.505Z,68.86
2023-04-11T18:54:45.941Z,69.98
2023-04-11T18:56:50.863Z,70.57
2023-04-11T18:59:04.320Z,71.94
2023-04-11T19:01:16.419Z,71.85
2023-04-11T19:03:20.736Z,71.81
2023-04-11T19:05:25.526Z,72.18
2023-04-11T19:07:28.411Z,71.43
2023-04-11T19:09:31.100Z,72.02
2023-04-11T19:11:34.964Z,73.58
2023-04-11T19:13:37.704Z,73.43
2023-04-11T19:15:42.447Z,73.08
2023-04-11T19:17:45.232Z,73.00
2023-04-11T19:19:48.136Z,73.69
2023-04-11T19:21:51.521Z,72.72
2023-04-11T19:23:54.512Z,72.75
2023-04-11T19:25:57.337Z,75.65
2023-04-11T19:28:00.578Z,77.23
2023-04-11T19:30:03.489Z,77.47
2023-04-11T19:32:08.826Z,76.61
2023-04-11T19:34:11.995Z,77.58
2023-04-11T19:36:14.881Z,78.32
2023-04-11T19:38:17.616Z,77.98
2023-04-11T19:40:23.185Z,77.48
2023-04-11T19:42:26.068Z,75.80
2023-04-11T19:44:30.435Z,76.51
2023-04-11T19:46:33.190Z,74.87
2023-04-11T19:48:37.291Z,76.41
2023-04-11T19:50:40.064Z,76.91
2023-04-11T19:52:43.837Z,77.95
2023-04-11T19:54:46.705Z,77.42
2023-04-11T19:56:49.478Z,76.97
2023-04-11T19:58:52.362Z,77.23
2023-04-11T20:00:55.281Z,76.77
2023-04-11T20:02:58.222Z,76.22
2023-04-11T20:05:02.436Z,75.81
2023-04-11T20:07:05.151Z,75.99
2023-04-11T20:09:07.863Z,75.32
2023-04-11T20:11:15.518Z,75.67
2023-04-11T20:13:18.278Z,76.80
2023-04-11T20:15:21.184Z,77.56
2023-04-11T20:17:23.957Z,77.08
2023-04-11T20:19:29.559Z,77.11
2023-04-11T20:21:33.827Z,77.63
2023-04-11T20:23:37.028Z,79.45
2023-04-11T20:25:39.780Z,77.89
2023-04-11T20:27:43.726Z,77.44
2023-04-11T20:29:46.457Z,76.37
2023-04-11T20:31:49.231Z,76.42
2023-04-11T20:33:52.119Z,77.51
2023-04-11T20:35:55.817Z,78.56
2023-04-11T20:38:00.298Z,78.33
2023-04-11T20:40:06.490Z,79.03
2023-04-11T20:42:10.804Z,81.08
2023-04-11T20:44:17.596Z,80.88
2023-04-11T20:46:21.609Z,80.81
2023-04-11T20:48:25.870Z,79.43
2023-04-11T20:50:33.249Z,79.57
2023-04-11T20:52:36.756Z,79.39
2023-04-11T20:54:41.100Z,77.93
2023-04-11T20:56:44.025Z,76.75
2023-04-11T20:58:46.981Z,77.62
2023-04-11T21:00:49.698Z,78.23
2023-04-11T21:02:53.079Z,77.79
2023-04-11T21:04:56.411Z,78.61
2023-04-11T21:06:59.126Z,78.67
2023-04-11T21:09:02.588Z,79.84
2023-04-11T21:11:07.021Z,79.38
2023-04-11T21:13:09.772Z,78.54
2023-04-11T21:15:12.925Z,79.98
2023-04-11T21:17:15.714Z,79.70
2023-04-11T21:19:18.687Z,79.79
2023-04-11T21:21:21.430Z,80.09
2023-04-11T21:23:24.203Z,79.90
2023-04-11T21:25:27.200Z,81.26
2023-04-11T21:27:31.345Z,81.33
2023-04-11T21:29:34.088Z,81.01
2023-04-11T21:31:36.854Z,82.33
2023-04-11T21:33:39.606Z,81.39
2023-04-11T21:35:42.487Z,82.05
2023-04-11T21:37:47.148Z,81.95
2023-04-11T21:39:51.797Z,82.77
2023-04-11T21:41:54.606Z,82.83
2023-04-11T21:43:59.022Z,82.25
2023-04-11T21:46:01.949Z,83.08
2023-04-11T21:48:04.828Z,83.24
2023-04-11T21:50:09.064Z,83.45
2023-04-11T21:52:11.815Z,81.91
2023-04-11T21:54:14.608Z,82.32
2023-04-11T21:56:17.405Z,82.06
2023-04-11T21:58:29.041Z,81.83
2023-04-11T22:00:33.918Z,81.06
2023-04-11T22:02:36.897Z,83.03
2023-04-11T22:04:55.698Z,82.79
2023-04-11T22:07:02.624Z,82.80
2023-04-11T22:09:05.709Z,82.58
2023-04-11T22:11:10.496Z,83.46
2023-04-11T22:13:15.114Z,82.95
2023-04-11T22:15:18.366Z,83.29
2023-04-11T22:17:23.726Z,84.02
2023-04-11T22:19:28.528Z,84.38
2023-04-11T22:21:32.465Z,85.02
2023-04-11T22:23:35.946Z,85.84
2023-04-11T22:25:38.763Z,86.48
2023-04-11T22:27:41.558Z,86.76
2023-04-11T22:29:45.409Z,87.15
2023-04-11T22:31:49.659Z,87.42
2023-04-11T22:33:54.255Z,88.17
2023-04-11T22:36:00.287Z,88.87
2023-04-11T22:38:03.909Z,89.25
2023-04-11T22:40:08.380Z,89.86
2023-04-11T22:42:12.629Z,90.16
2023-04-11T22:44:15.516Z,89.83
2023-04-11T22:46:18.342Z,88.83
2023-04-11T22:48:21.239Z,89.83
2023-04-11T22:50:25.379Z,88.99
2023-04-11T22:52:30.375Z,89.14
2023-04-11T22:54:33.168Z,90.78
2023-04-11T22:56:35.953Z,91.86
2023-04-11T22:58:39.720Z,91.65
2023-04-11T23:00:43.645Z,92.91
2023-04-11T23:02:47.198Z,93.16
2023-04-11T23:04:50.238Z,93.63
2023-04-11T23:06:54.643Z,93.50
2023-04-11T23:08:57.757Z,94.11
2023-04-11T23:11:00.580Z,94.84
2023-04-11T23:13:03.656Z,96.30
2023-04-11T23:15:07.415Z,97.32
2023-04-11T23:17:10.184Z,97.35
2023-04-11T23:19:13.463Z,97.88
2023-04-11T23:21:16.312Z,97.42
2023-04-11T23:23:20.805Z,97.64
2023-04-11T23:25:23.744Z,99.17
2023-04-11T23:27:32.771Z,99.99
2023-04-11T23:29:38.593Z,99.17
2023-04-11T23:31:41.531Z,100.00
2023-04-11T23:33:44.686Z,100.00
2023-04-11T23:35:47.529Z,100.00
2023-04-11T23:37:50.896Z,100.00
2023-04-11T23:39:55.544Z,100.00
2023-04-11T23:41:58.361Z,100.00
2023-04-11T23:44:01.156Z,100.00
2023-04-11T23:46:03.934Z,100.00
2023-04-11T23:48:07.447Z,100.00
2023-04-11T23:50:12.148Z,100.00
2023-04-11T23:52:15.040Z,100.00
2023-04-11T23:54:17.818Z,100.00
2023-04-11T23:56:23.013Z,100.00
2023-04-11T23:58:25.904Z,100.00
